METAR Data
IDs: Format: Raw Decoded Include TAF

Data at: 2056 UTC 31 Jan 2023

KPAE 312053Z VRB03KT 10SM OVC047 03/M03 A3022 RMK AO2 SLP240 T00281033 58011

KPAE 311723Z 3118/0118 13004KT P6SM BKN050 OVC090
  FM312100 18005KT P6SM SCT050 BKN250
  FM010300 12004KT P6SM OVC120
  FM011000 14005KT P6SM OVC100


KAWO 311956Z AUTO 06003KT 10SM OVC050 02/M01 A3027 RMK AO2 SLP257 T00221006 FZRANO
No TAF found for KAWO

KBFI 312053Z 00000KT 10SM CLR 04/M03 A3025 RMK AO2 SLP241 T00391028 56014

KBFI 311723Z 3118/0118 16007KT P6SM BKN040 OVC090
  FM312100 18005KT P6SM SCT050 BKN250
  FM010300 15003KT P6SM OVC120
  FM011100 13003KT P6SM OVC100


KRNT 312053Z 33005KT 10SM CLR 04/M02 A3024 RMK AO2 SLP245 T00441017 56013
No TAF found for KRNT

KSEA 312053Z 00000KT 10SM FEW140 BKN180 04/M02 A3023 RMK AO2 SLP245 ACSL DSNT SE T00391022 56010

KSEA 311723Z 3118/0124 12005KT P6SM SCT040 OVC120
  FM312100 18005KT P6SM SCT050 BKN250
  FM010300 14004KT P6SM OVC120
  FM011000 14005KT P6SM OVC100